Terminal Aerodrome Forecast
Issued by NWS

Home | Current Version | Previous Version | Text Only | Print | Product List | Glossary On
Versions: 1 2 3 4 5 6 7 8 9 10 11 12 13 14 15 16 17 18 19 20
688
FTUS43 KMQT 251734 AAB
TAFCMX
TAF AMD
KCMX 251734Z 2518/2618 27015G23KT P6SM SKC
     FM260000 27012G18KT P6SM SKC
     FM260200 26009KT P6SM SKC
     FM260600 26005KT P6SM SKC=

USA.gov is the U.S. government's official web portal to all federal, state and local government web resources and services.